Time;durP1;ratioP1;P1;durP2;ratioP2;P2;SDS_P1;SDS_P2;PMS_P1;PMS_P2;Temp;Humidity;BMP_temperature;BMP_pressure;BME280_temperature;BME280_humidity;BME280_pressure;Samples;Min_cycle;Max_cycle;Signal;HPM_P1;HPM_P2
2021/07/07 00:00:24;;;;;;;0.40;0.40;;;;;;;14.89;93.42;96814.19;29395;223;63004;-63
2021/07/07 00:00:58;;;;;;;0.30;0.30;;;;;;;14.90;93.58;96815.81;29395;237;63009;-63
2021/07/07 00:01:30;;;;;;;0.40;0.40;;;;;;;14.88;93.55;96818.84;29393;273;64009;-63
2021/07/07 00:02:03;;;;;;;0.40;0.40;;;;;;;14.88;93.39;96823.50;29395;289;63009;-63
2021/07/07 00:02:35;;;;;;;0.40;0.40;;;;;;;14.88;93.43;96823.50;29395;255;63005;-63
2021/07/07 00:03:06;;;;;;;0.32;0.32;;;;;;;14.88;93.21;96818.06;29395;247;63009;-63
2021/07/07 00:03:37;;;;;;;0.30;0.30;;;;;;;14.88;93.15;96816.13;29393;242;64009;-63
2021/07/07 00:04:08;;;;;;;0.40;0.40;;;;;;;14.89;93.34;96815.00;29395;251;63009;-63
2021/07/07 00:04:40;;;;;;;0.40;0.40;;;;;;;14.90;93.25;96815.81;29394;210;64005;-63
2021/07/07 00:05:13;;;;;;;0.40;0.40;;;;;;;14.91;92.91;96817.38;29395;228;63009;-63
2021/07/07 00:05:44;;;;;;;0.40;0.40;;;;;;;14.91;92.96;96811.91;29395;208;63004;-63
2021/07/07 00:06:15;;;;;;;0.40;0.40;;;;;;;14.92;92.96;96816.25;29395;216;63009;-63
2021/07/07 00:06:46;;;;;;;0.30;0.30;;;;;;;14.91;92.62;96811.91;29395;207;63004;-63
2021/07/07 00:07:18;;;;;;;0.40;0.40;;;;;;;14.91;92.88;96811.91;29395;202;63009;-61
2021/07/07 00:07:49;;;;;;;0.40;0.40;;;;;;;14.90;92.54;96800.19;29395;273;63004;-63
2021/07/07 00:08:20;;;;;;;0.40;0.40;;;;;;;14.93;92.69;96809.66;29395;202;63009;-62
2021/07/07 00:08:51;;;;;;;0.40;0.40;;;;;;;14.95;92.58;96810.16;29393;308;64009;-56
2021/07/07 00:09:22;;;;;;;0.40;0.40;;;;;;;14.95;92.54;96812.88;29395;326;63009;-63
2021/07/07 00:09:54;;;;;;;0.40;0.40;;;;;;;14.95;92.29;96808.22;29395;240;63005;-62
2021/07/07 00:10:27;;;;;;;0.40;0.40;;;;;;;14.94;92.20;96808.53;29395;235;63009;-55
2021/07/07 00:11:00;;;;;;;0.30;0.30;;;;;;;14.93;92.21;96815.13;29395;216;63005;-64
2021/07/07 00:11:32;;;;;;;0.40;0.40;;;;;;;14.92;92.41;96813.53;29395;212;63009;-62
2021/07/07 00:12:03;;;;;;;0.40;0.40;;;;;;;14.90;92.58;96819.31;29395;210;63005;-62
2021/07/07 00:12:35;;;;;;;0.35;0.35;;;;;;;14.91;92.58;96817.38;29395;224;63009;-62
2021/07/07 00:13:07;;;;;;;0.30;0.30;;;;;;;14.89;92.44;96817.72;29395;224;63004;-63
2021/07/07 00:13:38;;;;;;;0.30;0.30;;;;;;;14.88;92.67;96818.84;29395;196;63009;-55
2021/07/07 00:14:09;;;;;;;0.30;0.30;;;;;;;14.87;92.85;96811.78;29393;224;64009;-61
2021/07/07 00:14:44;;;;;;;0.30;0.30;;;;;;;14.87;92.83;96813.72;29395;197;63009;-62
2021/07/07 00:15:18;;;;;;;0.32;0.32;;;;;;;14.88;92.93;96820.78;29395;234;63004;-62
2021/07/07 00:15:50;;;;;;;0.30;0.30;;;;;;;14.87;92.94;96816.44;29395;213;63008;-62
2021/07/07 00:16:21;;;;;;;0.40;0.40;;;;;;;14.87;92.70;96816.44;29394;219;64005;-56
2021/07/07 00:16:52;;;;;;;0.40;0.40;;;;;;;14.87;92.75;96821.91;29395;209;63009;-61
2021/07/07 00:17:25;;;;;;;0.30;0.30;;;;;;;14.89;92.95;96819.66;29395;254;63005;-55
2021/07/07 00:17:56;;;;;;;0.40;0.40;;;;;;;14.89;93.22;96814.19;29395;233;63009;-61
2021/07/07 00:18:28;;;;;;;0.30;0.30;;;;;;;14.89;92.91;96814.19;29395;229;63008;-62
2021/07/07 00:18:59;;;;;;;0.30;0.30;;;;;;;14.88;93.14;96807.94;29395;225;63009;-63
2021/07/07 00:19:31;;;;;;;0.37;0.37;;;;;;;14.89;93.21;96814.19;29393;204;64009;-61
2021/07/07 00:20:05;;;;;;;0.40;0.40;;;;;;;14.89;93.56;96816.94;29395;209;63009;-63
2021/07/07 00:20:41;;;;;;;2.50;2.30;;;;;;;14.87;93.55;96814.50;29395;217;63004;-62
2021/07/07 00:21:13;;;;;;;0.40;0.40;;;;;;;14.88;93.36;96820.78;29395;293;63027;-63
2021/07/07 00:21:45;;;;;;;0.40;0.40;;;;;;;14.88;93.29;96818.06;29395;218;63004;-62
2021/07/07 00:22:17;;;;;;;0.40;0.40;;;;;;;14.88;93.27;96818.06;29394;197;63008;-56
2021/07/07 00:22:48;;;;;;;0.40;0.40;;;;;;;14.88;93.35;96818.84;29395;230;63007;-61
2021/07/07 00:23:21;;;;;;;0.40;0.40;;;;;;;14.87;93.76;96814.50;29395;335;63008;-62
2021/07/07 00:23:52;;;;;;;0.40;0.40;;;;;;;14.88;93.76;96823.50;29395;220;63005;-62
2021/07/07 00:24:25;;;;;;;0.37;0.37;;;;;;;14.88;93.65;96807.13;29395;226;63009;-56
2021/07/07 00:24:56;;;;;;;0.40;0.40;;;;;;;14.87;93.76;96813.72;29393;232;64009;-56
2021/07/07 00:25:28;;;;;;;0.40;0.40;;;;;;;14.87;93.59;96810.97;29395;230;63009;-63
2021/07/07 00:25:59;;;;;;;0.40;0.40;;;;;;;14.87;93.65;96816.44;29395;220;63016;-61
2021/07/07 00:26:31;;;;;;;0.40;0.40;;;;;;;14.86;93.89;96814.84;29395;267;63026;-62
2021/07/07 00:27:03;;;;;;;0.40;0.40;;;;;;;14.86;93.61;96815.63;29395;237;63004;-62
2021/07/07 00:27:37;;;;;;;0.40;0.40;;;;;;;14.86;93.63;96812.09;29395;214;63009;-61
2021/07/07 00:28:08;;;;;;;0.40;0.40;;;;;;;14.86;93.67;96814.84;29395;203;63004;-56
2021/07/07 00:28:41;;;;;;;0.40;0.40;;;;;;;14.86;93.63;96818.38;29395;199;63009;-63
2021/07/07 00:29:12;;;;;;;0.40;0.40;;;;;;;14.86;93.87;96820.31;29395;218;63016;-62
2021/07/07 00:29:44;;;;;;;0.40;0.40;;;;;;;14.87;93.63;96821.91;29395;202;63008;-63
2021/07/07 00:30:15;;;;;;;0.40;0.40;;;;;;;14.87;93.94;96821.91;29394;232;64009;-62
2021/07/07 00:30:47;;;;;;;0.40;0.40;;;;;;;14.88;93.93;96823.50;29395;197;63009;-55
2021/07/07 00:31:20;;;;;;;0.40;0.40;;;;;;;14.89;93.60;96825.13;29395;261;63005;-62
2021/07/07 00:31:51;;;;;;;0.40;0.40;;;;;;;14.90;93.89;96826.72;29395;284;63009;-62
2021/07/07 00:32:23;;;;;;;0.40;0.40;;;;;;;14.89;93.76;96831.37;29395;210;63005;-62
2021/07/07 00:32:55;;;;;;;0.40;0.40;;;;;;;14.89;94.03;96825.13;29395;238;63009;-62
2021/07/07 00:33:26;;;;;;;0.40;0.40;;;;;;;14.89;93.72;96831.37;29395;253;63005;-63
2021/07/07 00:33:57;;;;;;;0.40;0.40;;;;;;;14.89;93.92;96830.59;29395;278;63009;-56
2021/07/07 00:34:28;;;;;;;0.40;0.40;;;;;;;14.89;93.63;96822.37;29395;336;63004;-63
2021/07/07 00:34:59;;;;;;;0.40;0.40;;;;;;;14.89;93.98;96822.37;29394;214;63009;-55
2021/07/07 00:35:35;;;;;;;0.40;0.40;;;;;;;14.88;93.95;96823.50;29393;315;64009;-62
2021/07/07 00:36:06;;;;;;;0.40;0.40;;;;;;;14.88;93.75;96820.78;29395;222;63009;-62
2021/07/07 00:36:39;;;;;;;0.40;0.40;;;;;;;14.88;93.48;96823.50;29395;206;63004;-56
2021/07/07 00:37:10;;;;;;;0.40;0.40;;;;;;;14.90;93.72;96821.25;29395;227;63008;-63
2021/07/07 00:37:41;;;;;;;0.40;0.40;;;;;;;14.89;93.50;96825.13;29395;227;63005;-56
2021/07/07 00:38:13;;;;;;;0.40;0.40;;;;;;;14.90;93.39;96826.72;29395;278;63009;-62
2021/07/07 00:38:44;;;;;;;0.30;0.30;;;;;;;14.89;93.44;96819.66;29395;246;63005;-63
2021/07/07 00:39:17;;;;;;;0.30;0.30;;;;;;;14.89;93.27;96819.66;29395;255;63009;-62
2021/07/07 00:39:48;;;;;;;0.40;0.40;;;;;;;14.90;93.34;96824.00;29395;378;63005;-62
2021/07/07 00:40:20;;;;;;;0.40;0.40;;;;;;;14.89;93.37;96819.66;29394;214;64013;-63
2021/07/07 00:40:52;;;;;;;0.40;0.40;;;;;;;14.87;93.42;96817.25;29395;202;63015;-63
2021/07/07 00:41:23;;;;;;;0.40;0.40;;;;;;;14.87;93.62;96821.91;29395;202;63009;-62
2021/07/07 00:41:56;;;;;;;0.40;0.40;;;;;;;14.87;93.55;96827.38;29394;218;64009;-63
2021/07/07 00:42:27;;;;;;;0.40;0.40;;;;;;;14.87;93.64;96821.91;29395;219;63009;-63
2021/07/07 00:42:58;;;;;;;0.40;0.40;;;;;;;14.81;93.62;96817.72;29395;219;63000;-55
2021/07/07 00:43:30;;;;;;;0.40;0.40;;;;;;;14.87;93.47;96839.09;29394;196;64013;-63
2021/07/07 00:44:02;;;;;;;0.40;0.40;;;;;;;14.87;93.65;96827.38;29395;219;63004;-62
2021/07/07 00:44:34;;;;;;;0.40;0.40;;;;;;;14.87;93.92;96828.19;29395;205;63008;-56
2021/07/07 00:45:07;;;;;;;0.40;0.40;;;;;;;14.87;93.85;96835.56;29395;210;63005;-56
2021/07/07 00:45:38;;;;;;;0.40;0.40;;;;;;;14.87;93.96;96836.38;29395;219;63009;-62
2021/07/07 00:46:09;;;;;;;0.40;0.40;;;;;;;14.88;93.78;96828.97;29395;222;63008;-63
2021/07/07 00:46:41;;;;;;;0.40;0.40;;;;;;;14.86;94.19;96825.75;29395;310;63009;-62
2021/07/07 00:47:12;;;;;;;0.40;0.40;;;;;;;14.85;94.31;96824.16;29395;226;63005;-56
2021/07/07 00:47:47;;;;;;;2.05;1.48;;;;;;;14.85;94.21;96824.97;29395;269;63009;-63
2021/07/07 00:48:18;;;;;;;0.40;0.40;;;;;;;14.86;94.19;96836.69;29394;296;64009;-61
2021/07/07 00:48:50;;;;;;;0.40;0.40;;;;;;;14.86;93.88;96825.75;29395;246;63009;-62
2021/07/07 00:49:21;;;;;;;0.40;0.40;;;;;;;14.86;94.04;96821.09;29395;228;63005;-63
2021/07/07 00:49:52;;;;;;;0.40;0.40;;;;;;;14.86;94.16;96825.75;29395;258;63009;-62
2021/07/07 00:50:27;;;;;;;0.40;0.40;;;;;;;14.85;94.06;96824.16;29395;335;63004;-62
2021/07/07 00:50:59;;;;;;;0.40;0.40;;;;;;;14.84;93.98;96822.53;29395;257;63009;-62
2021/07/07 00:51:32;;;;;;;0.40;0.40;;;;;;;14.84;93.88;96825.28;29395;206;63010;-63
2021/07/07 00:52:05;;;;;;;0.40;0.40;;;;;;;14.81;93.79;96831.37;29395;226;63008;-62
2021/07/07 00:52:40;;;;;;;0.40;0.40;;;;;;;14.82;93.89;96819.34;29395;215;63004;-62
2021/07/07 00:53:12;;;;;;;0.40;0.40;;;;;;;14.82;93.91;96833.00;29394;206;64014;-56
2021/07/07 00:53:46;;;;;;;0.40;0.40;;;;;;;14.80;93.98;96816.91;29395;204;63005;-56
2021/07/07 00:54:17;;;;;;;0.40;0.40;;;;;;;14.80;93.55;96829.78;29395;273;63009;-63
2021/07/07 00:54:56;;;;;;;0.40;0.40;;;;;;;14.80;93.61;96827.03;29395;205;63005;-62
2021/07/07 00:55:27;;;;;;;0.40;0.40;;;;;;;14.79;93.51;96822.69;29395;300;63009;-62
2021/07/07 00:55:59;;;;;;;0.40;0.40;;;;;;;14.80;93.73;96818.84;29395;240;63005;-62
2021/07/07 00:56:33;;;;;;;0.40;0.40;;;;;;;14.82;93.49;96819.34;29394;332;64013;-61
2021/07/07 00:57:05;;;;;;;0.40;0.40;;;;;;;14.84;93.68;96811.62;29395;222;63004;-57
2021/07/07 00:57:40;;;;;;;0.40;0.40;;;;;;;14.84;93.43;96817.09;29395;202;63009;-62
2021/07/07 00:58:17;;;;;;;0.40;0.40;;;;;;;14.86;93.18;96820.31;29395;254;63004;-62
2021/07/07 00:58:54;;;;;;;0.40;0.40;;;;;;;14.87;93.16;96805.53;29395;231;63009;-62
2021/07/07 00:59:27;;;;;;;0.40;0.40;;;;;;;14.88;93.11;96815.31;29395;203;63004;-62
2021/07/07 00:59:59;;;;;;;0.40;0.40;;;;;;;14.88;93.03;96807.13;29394;295;64013;-62
2021/07/07 01:00:30;;;;;;;0.40;0.40;;;;;;;14.88;93.17;96798.94;29395;321;63005;-62
2021/07/07 01:01:06;;;;;;;0.40;0.40;;;;;;;14.89;93.06;96804.06;29395;302;63009;-62
2021/07/07 01:01:41;;;;;;;0.40;0.40;;;;;;;14.90;93.22;96804.88;29395;263;63005;-62
2021/07/07 01:02:17;;;;;;;0.30;0.30;;;;;;;14.89;93.21;96803.28;29395;327;63009;-63
2021/07/07 01:02:51;;;;;;;0.40;0.40;;;;;;;14.89;93.16;96803.28;29395;211;63005;-61
2021/07/07 01:03:22;;;;;;;0.40;0.40;;;;;;;14.89;93.26;96809.53;29395;222;63009;-56
2021/07/07 01:03:54;;;;;;;0.40;0.40;;;;;;;14.88;93.36;96809.84;29394;225;64009;-61
2021/07/07 01:04:30;;;;;;;0.40;0.40;;;;;;;14.89;93.24;96803.28;29395;230;63009;-57
2021/07/07 01:05:01;;;;;;;0.40;0.40;;;;;;;14.90;93.20;96810.34;29395;202;63009;-57
2021/07/07 01:05:32;;;;;;;0.40;0.40;;;;;;;14.89;93.23;96801.34;29395;211;63025;-56
2021/07/07 01:06:03;;;;;;;0.40;0.40;;;;;;;14.90;93.55;96804.88;29394;204;64004;-57
2021/07/07 01:06:35;;;;;;;0.40;0.40;;;;;;;14.90;93.45;96808.37;29395;212;63009;-63
2021/07/07 01:07:08;;;;;;;0.40;0.40;;;;;;;14.92;93.35;96808.06;29395;214;63004;-57
2021/07/07 01:07:41;;;;;;;0.40;0.40;;;;;;;14.93;93.44;96804.19;29395;196;63008;-61
2021/07/07 01:08:12;;;;;;;0.40;0.40;;;;;;;14.95;93.59;96801.94;29394;210;64009;-62
2021/07/07 01:08:43;;;;;;;0.40;0.40;;;;;;;14.95;93.54;96801.94;29395;222;63009;-62
2021/07/07 01:09:14;;;;;;;0.40;0.40;;;;;;;14.96;93.47;96804.38;29395;216;63005;-61
2021/07/07 01:09:46;;;;;;;0.30;0.30;;;;;;;14.98;93.23;96801.31;29395;260;63009;-63
2021/07/07 01:10:17;;;;;;;0.40;0.40;;;;;;;15.00;93.17;96801.78;29394;219;64009;-56
2021/07/07 01:10:48;;;;;;;0.40;0.40;;;;;;;14.99;93.20;96802.91;29394;291;64013;-62
2021/07/07 01:11:21;;;;;;;0.40;0.40;;;;;;;14.98;93.27;96795.84;29395;202;63004;-62
2021/07/07 01:11:56;;;;;;;0.40;0.40;;;;;;;14.99;93.25;96800.19;29395;198;63009;-62
2021/07/07 01:12:27;;;;;;;0.40;0.40;;;;;;;14.99;93.69;96797.44;29395;239;63004;-61
2021/07/07 01:12:58;;;;;;;0.40;0.40;;;;;;;14.98;93.79;96795.84;29395;293;63009;-57
2021/07/07 01:13:32;;;;;;;0.40;0.40;;;;;;;14.98;93.57;96801.31;29395;234;63000;-61
2021/07/07 01:14:05;;;;;;;0.40;0.40;;;;;;;14.97;93.51;96799.69;29395;382;63009;-55
2021/07/07 01:14:36;;;;;;;0.40;0.40;;;;;;;14.96;93.55;96798.91;29394;226;64008;-62
2021/07/07 01:15:10;;;;;;;0.40;0.40;;;;;;;14.97;93.58;96794.25;29395;222;63016;-63
2021/07/07 01:15:43;;;;;;;0.40;0.40;;;;;;;14.97;93.52;96799.69;29395;233;63005;-63
2021/07/07 01:16:14;;;;;;;0.40;0.40;;;;;;;14.97;93.50;96805.16;29395;236;63009;-62
2021/07/07 01:16:45;;;;;;;0.40;0.40;;;;;;;14.98;93.82;96806.78;29395;205;63005;-57
2021/07/07 01:17:19;;;;;;;0.40;0.40;;;;;;;14.98;93.51;96802.13;29395;238;63009;-56
2021/07/07 01:17:52;;;;;;;0.40;0.40;;;;;;;14.98;93.76;96806.78;29395;222;63017;-62
2021/07/07 01:18:23;;;;;;;0.40;0.40;;;;;;;14.98;93.70;96807.56;29395;300;63009;-62
2021/07/07 01:18:58;;;;;;;0.40;0.40;;;;;;;14.99;93.81;96809.19;29394;341;64009;-63
2021/07/07 01:19:29;;;;;;;0.40;0.40;;;;;;;14.99;93.86;96808.37;29395;218;63009;-64
2021/07/07 01:20:09;;;;;;;0.40;0.40;;;;;;;14.98;93.69;96801.31;29395;385;63004;-65
2021/07/07 01:20:40;;;;;;;0.40;0.40;;;;;;;14.97;93.81;96811.44;29394;260;64013;-64
2021/07/07 01:21:15;;;;;;;0.40;0.40;;;;;;;14.96;93.87;96809.81;29395;214;63004;-62
2021/07/07 01:21:48;;;;;;;0.40;0.40;;;;;;;14.95;93.89;96808.22;29395;216;63008;-62
2021/07/07 01:22:19;;;;;;;0.40;0.40;;;;;;;14.96;93.65;96809.03;29395;224;63005;-61
2021/07/07 01:22:51;;;;;;;0.40;0.40;;;;;;;14.95;93.82;96812.88;29395;197;63009;-62
2021/07/07 01:23:22;;;;;;;0.40;0.40;;;;;;;14.96;93.85;96806.28;29395;285;63005;-62
2021/07/07 01:23:53;;;;;;;0.40;0.40;;;;;;;14.95;93.90;96812.88;29395;230;63018;-61
2021/07/07 01:24:25;;;;;;;0.40;0.40;;;;;;;14.95;93.99;96812.88;29395;231;63005;-63
2021/07/07 01:24:57;;;;;;;0.40;0.40;;;;;;;14.93;93.79;96809.66;29395;213;63009;-63
2021/07/07 01:25:29;;;;;;;0.40;0.40;;;;;;;14.93;93.85;96809.66;29395;198;63005;-62
2021/07/07 01:26:03;;;;;;;0.40;0.40;;;;;;;14.93;93.62;96817.88;29394;389;64013;-63
2021/07/07 01:26:34;;;;;;;0.40;0.40;;;;;;;14.92;93.73;96813.53;29395;247;63013;-63
2021/07/07 01:27:10;;;;;;;0.40;0.40;;;;;;;14.92;93.95;96811.59;29395;220;63025;-63
2021/07/07 01:27:43;;;;;;;0.40;0.40;;;;;;;14.92;93.72;96813.53;29395;210;63018;-57
2021/07/07 01:28:16;;;;;;;0.40;0.40;;;;;;;14.91;93.69;96807.25;29395;235;63009;-56
2021/07/07 01:28:48;;;;;;;0.40;0.40;;;;;;;14.91;93.79;96814.66;29395;206;63004;-63
2021/07/07 01:29:19;;;;;;;0.40;0.40;;;;;;;14.90;94.00;96819.31;29395;233;63008;-63
2021/07/07 01:29:51;;;;;;;0.30;0.30;;;;;;;14.90;93.83;96821.25;29395;216;63005;-62
2021/07/07 01:30:23;;;;;;;0.40;0.40;;;;;;;14.90;93.89;96810.34;29395;371;63009;-63
2021/07/07 01:30:56;;;;;;;0.45;0.45;;;;;;;14.89;94.19;96811.47;29394;350;64009;-63
2021/07/07 01:31:27;;;;;;;0.40;0.40;;;;;;;14.89;93.93;96814.19;29395;224;63009;-56
2021/07/07 01:31:59;;;;;;;0.40;0.40;;;;;;;14.88;93.93;96810.66;29395;228;63005;-63
2021/07/07 01:32:32;;;;;;;0.40;0.40;;;;;;;14.89;94.10;96814.19;29395;280;63009;-63
2021/07/07 01:33:03;;;;;;;0.40;0.40;;;;;;;14.89;93.96;96819.66;29395;203;63005;-63
2021/07/07 01:33:36;;;;;;;0.40;0.40;;;;;;;14.89;93.98;96815.00;29395;275;63009;-57
2021/07/07 01:34:07;;;;;;;0.40;0.40;;;;;;;14.90;94.30;96811.12;29395;218;63004;-57
2021/07/07 01:34:38;;;;;;;0.40;0.40;;;;;;;14.91;94.32;96811.91;29395;199;63009;-63
2021/07/07 01:35:12;;;;;;;0.40;0.40;;;;;;;14.92;94.39;96819.00;29394;218;64009;-57
2021/07/07 01:35:43;;;;;;;0.40;0.40;;;;;;;14.91;94.43;96807.25;29395;264;63009;-59
2021/07/07 01:36:15;;;;;;;0.40;0.40;;;;;;;14.91;94.38;96806.44;29395;208;63004;-57
2021/07/07 01:36:46;;;;;;;0.40;0.40;;;;;;;14.90;94.31;96794.72;29395;205;63026;-63
2021/07/07 01:37:18;;;;;;;0.40;0.40;;;;;;;14.91;94.29;96803.72;29395;289;63017;-62
2021/07/07 01:37:51;;;;;;;0.40;0.40;;;;;;;14.90;94.56;96800.19;29394;233;64014;-57
2021/07/07 01:38:23;;;;;;;0.40;0.40;;;;;;;14.91;94.45;96801.00;29395;237;63005;-63
2021/07/07 01:38:54;;;;;;;0.40;0.40;;;;;;;14.91;94.67;96793.59;29395;343;63009;-62
2021/07/07 01:39:26;;;;;;;0.40;0.40;;;;;;;14.93;94.30;96787.81;29395;202;63005;-63
2021/07/07 01:39:57;;;;;;;0.40;0.40;;;;;;;14.95;94.17;96785.56;29395;352;63009;-58
2021/07/07 01:40:31;;;;;;;0.40;0.40;;;;;;;14.97;94.22;96788.78;29395;232;63005;-63
2021/07/07 01:41:04;;;;;;;0.40;0.40;;;;;;;14.99;93.97;96786.53;29394;220;64013;-63
2021/07/07 01:41:36;;;;;;;0.40;0.40;;;;;;;15.01;93.71;96789.75;29395;291;63004;-59
2021/07/07 01:42:08;;;;;;;0.40;0.40;;;;;;;15.02;93.85;96783.16;29395;235;63004;-57
2021/07/07 01:42:40;;;;;;;0.40;0.40;;;;;;;14.98;93.83;96779.44;29395;212;63004;-59
2021/07/07 01:43:12;;;;;;;0.40;0.40;;;;;;;15.06;93.40;96782.19;29395;279;63009;-59
2021/07/07 01:43:43;;;;;;;0.40;0.40;;;;;;;15.07;93.49;96785.72;29395;241;63004;-59
2021/07/07 01:44:15;;;;;;;0.40;0.40;;;;;;;15.06;93.14;96784.09;29395;224;63008;-62
2021/07/07 01:44:46;;;;;;;0.40;0.40;;;;;;;15.06;92.96;96782.19;29395;215;63004;-56
2021/07/07 01:45:21;;;;;;;0.40;0.40;;;;;;;15.06;92.93;96787.66;29394;227;64014;-59
2021/07/07 01:45:52;;;;;;;0.40;0.40;;;;;;;15.06;92.96;96792.31;29395;227;63005;-62
2021/07/07 01:46:23;;;;;;;0.40;0.40;;;;;;;15.05;93.17;96782.50;29395;269;63009;-62
2021/07/07 01:46:54;;;;;;;0.40;0.40;;;;;;;15.05;92.93;96779.78;29395;231;63005;-58
2021/07/07 01:47:26;;;;;;;0.40;0.40;;;;;;;15.05;93.21;96785.22;29395;274;63009;-62
2021/07/07 01:47:57;;;;;;;0.40;0.40;;;;;;;15.07;92.89;96781.06;29395;212;63005;-59
2021/07/07 01:48:28;;;;;;;0.40;0.40;;;;;;;15.07;92.76;96783.78;29394;232;64013;-62
2021/07/07 01:49:00;;;;;;;0.40;0.40;;;;;;;15.09;93.02;96788.94;29395;204;63004;-62
2021/07/07 01:49:32;;;;;;;0.35;0.35;;;;;;;15.08;93.12;96790.06;29395;218;63009;-59
2021/07/07 01:50:05;;;;;;;0.40;0.40;;;;;;;15.07;92.78;96782.97;29395;306;63004;-58
2021/07/07 01:50:36;;;;;;;0.40;0.40;;;;;;;15.06;92.77;96792.31;29395;261;63009;-61
2021/07/07 01:51:08;;;;;;;0.40;0.40;;;;;;;15.06;93.06;96792.31;29395;196;63004;-57
2021/07/07 01:51:39;;;;;;;0.40;0.40;;;;;;;15.05;92.83;96796.16;29395;237;63008;-61
2021/07/07 01:52:10;;;;;;;0.40;0.40;;;;;;;15.01;93.08;96795.19;29394;197;64008;-57
2021/07/07 01:52:42;;;;;;;0.40;0.40;;;;;;;15.03;92.99;96796.50;29395;212;63009;-62
2021/07/07 01:53:13;;;;;;;0.40;0.40;;;;;;;15.02;93.03;96802.28;29395;223;63005;-57
2021/07/07 01:53:45;;;;;;;0.40;0.40;;;;;;;15.02;93.44;96807.75;29395;197;63009;-61
2021/07/07 01:54:16;;;;;;;0.40;0.40;;;;;;;15.00;93.08;96805.31;29395;225;63005;-57
2021/07/07 01:54:49;;;;;;;0.40;0.40;;;;;;;15.00;93.14;96804.53;29395;271;63017;-57
2021/07/07 01:55:22;;;;;;;0.50;0.50;;;;;;;15.00;93.25;96801.78;29395;284;63005;-62
2021/07/07 01:55:55;;;;;;;0.40;0.40;;;;;;;15.00;93.13;96810.00;29394;228;64013;-62
2021/07/07 01:56:26;;;;;;;0.40;0.40;;;;;;;15.00;93.25;96813.53;29395;216;63005;-63
2021/07/07 01:56:58;;;;;;;0.40;0.40;;;;;;;15.00;93.43;96820.91;29395;384;63009;-64
2021/07/07 01:57:45;;;;;;;0.40;0.40;;;;;;;14.99;93.38;96811.12;29395;218;63004;-57
2021/07/07 01:58:17;;;;;;;0.40;0.40;;;;;;;15.01;93.78;96817.06;29394;277;64013;-57
2021/07/07 01:58:48;;;;;;;0.40;0.40;;;;;;;15.01;93.71;96823.31;29395;197;63004;-62
2021/07/07 01:59:20;;;;;;;0.40;0.40;;;;;;;15.03;93.64;96820.28;29395;238;63008;-57
2021/07/07 01:59:52;;;;;;;0.40;0.40;;;;;;;15.05;93.89;96828.94;29395;211;63004;-57
2021/07/07 02:00:27;;;;;;;0.40;0.40;;;;;;;15.05;93.66;96827.03;29395;240;63009;-64
2021/07/07 02:01:00;;;;;;;0.40;0.40;;;;;;;15.06;93.72;96827.81;29395;238;63005;-62
2021/07/07 02:01:32;;;;;;;0.40;0.40;;;;;;;15.06;93.47;96825.09;29395;198;63009;-63
2021/07/07 02:02:03;;;;;;;0.40;0.40;;;;;;;15.06;93.73;96825.09;29395;237;63005;-65
2021/07/07 02:02:38;;;;;;;0.40;0.40;;;;;;;15.06;93.45;96830.56;29395;197;63009;-57
2021/07/07 02:03:09;;;;;;;0.40;0.40;;;;;;;15.05;93.64;96828.94;29395;220;63005;-61
2021/07/07 02:03:41;;;;;;;0.40;0.40;;;;;;;15.03;93.36;96831.19;29394;214;64013;-62
2021/07/07 02:04:12;;;;;;;0.40;0.40;;;;;;;15.03;93.59;96825.75;29394;204;64009;-61
2021/07/07 02:04:43;;;;;;;0.30;0.30;;;;;;;15.02;93.30;96829.59;29395;197;63009;-57
2021/07/07 02:05:16;;;;;;;0.40;0.40;;;;;;;15.00;93.64;96829.13;29395;233;63004;-57
2021/07/07 02:05:48;;;;;;;0.40;0.40;;;;;;;14.98;93.43;96828.63;29395;212;63008;-57
2021/07/07 02:06:19;;;;;;;0.40;0.40;;;;;;;14.97;93.58;96827.03;29395;213;63004;-57
2021/07/07 02:06:50;;;;;;;0.40;0.40;;;;;;;14.95;93.72;96818.34;29395;315;63008;-61
2021/07/07 02:07:23;;;;;;;0.40;0.40;;;;;;;14.93;93.98;96821.41;29395;235;63004;-63
2021/07/07 02:07:55;;;;;;;0.40;0.40;;;;;;;14.94;93.71;96827.66;29395;199;63009;-57
2021/07/07 02:08:26;;;;;;;0.40;0.40;;;;;;;14.94;93.82;96823.00;29395;322;63005;-57
2021/07/07 02:08:58;;;;;;;0.40;0.40;;;;;;;14.96;93.71;96819.94;29394;208;64013;-61
2021/07/07 02:09:29;;;;;;;0.40;0.40;;;;;;;14.96;94.11;96830.87;29395;219;63005;-62
2021/07/07 02:10:03;;;;;;;0.40;0.40;;;;;;;14.96;94.22;96828.16;29395;226;63009;-62
2021/07/07 02:10:36;;;;;;;0.40;0.40;;;;;;;14.95;93.95;96821.06;29395;226;63005;-58
2021/07/07 02:11:07;;;;;;;0.40;0.40;;;;;;;14.95;93.84;96821.06;29395;293;63009;-57
2021/07/07 02:11:39;;;;;;;0.40;0.40;;;;;;;14.94;94.07;96819.47;29395;220;63004;-62
2021/07/07 02:12:10;;;;;;;0.40;0.40;;;;;;;14.94;94.09;96814.00;29394;224;64013;-62
2021/07/07 02:12:45;;;;;;;0.40;0.40;;;;;;;14.93;94.35;96815.94;29395;252;63004;-57
2021/07/07 02:13:17;;;;;;;0.40;0.40;;;;;;;14.93;94.09;96810.47;29395;230;63009;-63
2021/07/07 02:13:48;;;;;;;0.40;0.40;;;;;;;14.93;94.11;96810.47;29395;198;63004;-61
2021/07/07 02:14:21;;;;;;;0.40;0.40;;;;;;;14.92;94.22;96811.59;29395;232;63009;-58
2021/07/07 02:14:52;;;;;;;0.40;0.40;;;;;;;14.92;94.41;96813.53;29394;216;64009;-58
2021/07/07 02:15:27;;;;;;;0.40;0.40;;;;;;;14.92;94.19;96819.78;29395;203;63009;-62
2021/07/07 02:16:01;;;;;;;0.40;0.40;;;;;;;14.91;94.24;96822.84;29395;212;63010;-57
2021/07/07 02:16:32;;;;;;;0.40;0.40;;;;;;;14.91;94.23;96814.66;29395;256;63009;-62
2021/07/07 02:17:03;;;;;;;0.40;0.40;;;;;;;14.90;94.59;96821.25;29394;279;64009;-62
2021/07/07 02:17:40;;;;;;;0.40;0.40;;;;;;;14.91;94.57;96817.38;29395;197;63009;-57
2021/07/07 02:18:11;;;;;;;0.40;0.40;;;;;;;14.90;94.52;96815.81;29394;222;64009;-61
2021/07/07 02:18:46;;;;;;;0.40;0.40;;;;;;;14.90;94.72;96824.78;29395;222;63009;-57
2021/07/07 02:19:17;;;;;;;0.40;0.40;;;;;;;14.92;94.30;96825.25;29395;206;63004;-62
2021/07/07 02:19:48;;;;;;;0.40;0.40;;;;;;;14.92;94.40;96821.72;29395;199;63009;-56
2021/07/07 02:20:20;;;;;;;0.40;0.40;;;;;;;14.92;94.67;96824.44;29394;206;64004;-57
2021/07/07 02:20:52;;;;;;;0.40;0.40;;;;;;;14.92;94.41;96819.00;29394;210;64013;-62
2021/07/07 02:21:23;;;;;;;0.40;0.40;;;;;;;14.93;94.54;96826.06;29395;237;63004;-61
2021/07/07 02:21:55;;;;;;;0.40;0.40;;;;;;;14.93;94.62;96820.59;29395;219;63009;-61
2021/07/07 02:22:28;;;;;;;0.40;0.40;;;;;;;14.93;94.81;96826.88;29395;238;63005;-57
2021/07/07 02:23:00;;;;;;;0.40;0.40;;;;;;;14.94;94.66;96822.19;29395;214;63009;-57
2021/07/07 02:23:31;;;;;;;0.40;0.40;;;;;;;14.93;94.77;96821.41;29394;211;64009;-60
2021/07/07 02:24:03;;;;;;;0.40;0.40;;;;;;;14.94;94.77;96819.47;29395;197;63009;-61
2021/07/07 02:24:35;;;;;;;0.40;0.40;;;;;;;14.94;94.67;96828.47;29395;236;63005;-62
2021/07/07 02:25:09;;;;;;;0.40;0.40;;;;;;;14.93;94.69;96826.88;29395;218;63013;-60
2021/07/07 02:25:46;;;;;;;0.40;0.40;;;;;;;14.94;95.03;96823.00;29395;230;63005;-57
2021/07/07 02:26:17;;;;;;;0.40;0.40;;;;;;;14.94;94.96;96825.75;29395;302;63009;-61
2021/07/07 02:26:48;;;;;;;0.40;0.40;;;;;;;14.95;95.03;96832.81;29395;347;63004;-62
2021/07/07 02:27:19;;;;;;;0.40;0.40;;;;;;;14.94;95.02;96833.94;29395;236;63009;-61
2021/07/07 02:27:52;;;;;;;0.40;0.40;;;;;;;14.94;94.75;96831.19;29395;199;63004;-61
2021/07/07 02:28:26;;;;;;;0.40;0.40;;;;;;;14.94;94.79;96831.19;29394;231;64013;-61
2021/07/07 02:28:57;;;;;;;0.40;0.40;;;;;;;14.94;94.88;96836.66;29395;206;63004;-61
2021/07/07 02:29:29;;;;;;;0.40;0.40;;;;;;;14.95;94.68;96830.06;29395;260;63016;-59
2021/07/07 02:30:00;;;;;;;0.40;0.40;;;;;;;14.94;95.24;96824.94;29395;203;63005;-60
2021/07/07 02:30:35;;;;;;;0.40;0.40;;;;;;;14.94;94.95;96811.28;29394;283;64014;-60
2021/07/07 02:31:06;;;;;;;0.40;0.40;;;;;;;14.95;94.78;96813.69;29395;203;63005;-61
2021/07/07 02:31:38;;;;;;;0.40;0.40;;;;;;;14.97;94.81;96810.62;29395;197;63009;-60
2021/07/07 02:32:10;;;;;;;0.40;0.40;;;;;;;15.00;94.84;96805.31;29395;262;63005;-58
2021/07/07 02:32:43;;;;;;;0.40;0.40;;;;;;;15.01;94.53;96814.31;29395;288;63009;-59
2021/07/07 02:33:14;;;;;;;0.40;0.40;;;;;;;14.99;94.34;96806.44;29395;295;63005;-57
2021/07/07 02:33:45;;;;;;;0.40;0.40;;;;;;;14.99;94.53;96814.66;29395;209;63015;-57